Time;durP1;ratioP1;P1;durP2;ratioP2;P2;SDS_P1;SDS_P2;PMS_P1;PMS_P2;Temp;Humidity;BMP_temperature;BMP_pressure;BME280_temperature;BME280_humidity;BME280_pressure;Samples;Min_cycle;Max_cycle;Signal;HPM_P1;HPM_P2
2022/02/08 00:00:17;;;;;;;22.02;16.17;;;;;;;3.76;74.25;99449.87;1737065;80;20961;-67
2022/02/08 00:02:48;;;;;;;22.27;16.20;;;;;;;3.82;74.57;99456.84;1739125;81;21516;-67
2022/02/08 00:05:14;;;;;;;23.50;16.50;;;;;;;3.85;74.74;99453.72;1733247;82;21454;-67
2022/02/08 00:07:40;;;;;;;21.42;15.55;;;;;;;3.88;74.86;99455.06;1759829;81;21075;-67
2022/02/08 00:10:07;;;;;;;19.10;14.85;;;;;;;3.88;74.97;99457.21;1756276;81;21018;-67
2022/02/08 00:12:35;;;;;;;19.62;14.70;;;;;;;3.89;75.04;99466.72;1733725;82;21129;-67
2022/02/08 00:15:03;;;;;;;20.80;15.60;;;;;;;3.92;75.09;99472.85;1733940;82;21234;-67
2022/02/08 00:17:30;;;;;;;18.60;14.38;;;;;;;3.93;75.11;99474.97;1733667;82;21022;-66
2022/02/08 00:19:59;;;;;;;21.90;15.72;;;;;;;3.92;75.17;99471.53;1735347;80;21526;-66
2022/02/08 00:22:26;;;;;;;20.40;15.63;;;;;;;3.91;75.19;99477.84;1733588;82;21011;-66
2022/02/08 00:24:53;;;;;;;19.70;15.70;;;;;;;3.91;75.23;99482.33;1734116;82;21518;-66
2022/02/08 00:27:21;;;;;;;20.02;14.80;;;;;;;3.91;75.25;99483.64;1735267;81;21421;-67
2022/02/08 00:29:47;;;;;;;21.37;15.25;;;;;;;3.92;75.30;99490.55;1705274;82;21050;-67
2022/02/08 00:32:15;;;;;;;22.37;15.20;;;;;;;3.94;75.30;99491.09;1737547;80;22582;-66
2022/02/08 00:34:42;;;;;;;19.42;14.70;;;;;;;3.95;75.25;99494.83;1764138;81;21019;-66
2022/02/08 00:37:08;;;;;;;21.40;15.85;;;;;;;3.95;75.23;99496.16;1764239;81;21080;-66
2022/02/08 00:39:36;;;;;;;20.75;15.63;;;;;;;3.93;75.22;99500.86;1764179;81;21463;-66
2022/02/08 00:42:08;;;;;;;23.85;15.60;;;;;;;3.93;75.22;99506.14;1763636;81;21050;-66
2022/02/08 00:44:46;;;;;;;20.70;14.35;;;;;;;3.90;75.27;99501.34;1764446;81;28561;-66
2022/02/08 00:47:22;;;;;;;18.62;12.53;;;;;;;3.90;75.29;99502.66;1763239;81;21015;-66
2022/02/08 00:49:44;;;;;;;18.87;12.58;;;;;;;3.88;75.25;99504.76;1762706;81;21059;-66
2022/02/08 00:52:15;;;;;;;15.78;11.57;;;;;;;3.87;75.27;99512.38;1764033;81;21204;-66
2022/02/08 00:54:46;;;;;;;13.70;10.50;;;;;;;3.86;75.21;99509.47;1764458;81;20996;-66
2022/02/08 00:57:13;;;;;;;15.18;9.98;;;;;;;3.84;75.06;99520.78;1764042;81;21019;-67
2022/02/08 00:59:39;;;;;;;11.85;8.15;;;;;;;3.79;75.00;99529.16;1764317;81;21102;-67
2022/02/08 01:02:07;;;;;;;12.03;7.65;;;;;;;3.73;74.92;99524.30;1764134;81;21121;-67
2022/02/08 01:04:34;;;;;;;10.70;7.50;;;;;;;3.71;74.90;99531.64;1764139;81;21111;-67
2022/02/08 01:07:04;;;;;;;9.43;6.80;;;;;;;3.68;74.77;99525.51;1764158;81;21513;-67
2022/02/08 01:09:45;;;;;;;9.78;6.80;;;;;;;3.63;74.72;99524.91;1764169;81;21058;-67
2022/02/08 01:11:59;;;;;;;8.65;5.85;;;;;;;3.61;74.73;99526.17;1759292;81;21629;-67
2022/02/08 01:14:26;;;;;;;8.98;6.50;;;;;;;3.59;74.71;99533.55;1764286;81;21506;-67
2022/02/08 01:16:53;;;;;;;8.23;5.92;;;;;;;3.56;74.65;99531.38;1764157;81;22773;-67
2022/02/08 01:19:21;;;;;;;9.63;5.87;;;;;;;3.53;74.67;99537.92;1764064;81;21141;-67
2022/02/08 01:21:48;;;;;;;9.10;5.90;;;;;;;3.50;74.62;99541.83;1764267;81;21494;-66
2022/02/08 01:24:14;;;;;;;8.95;5.40;;;;;;;3.49;74.62;99544.20;1764122;81;21437;-66
2022/02/08 01:26:49;;;;;;;9.45;5.58;;;;;;;3.50;74.56;99544.47;1764216;81;21438;-67
2022/02/08 01:29:34;;;;;;;;;;;;;;;;;;;;;
2022/02/08 01:31:48;;;;;;;7.85;4.97;;;;;;;3.51;74.37;99565.06;1721932;82;20932;-68
2022/02/08 01:34:36;;;;;;;8.03;4.37;;;;;;;3.49;74.29;99561.36;1733523;82;32630;-67
2022/02/08 01:37:26;;;;;;;6.03;3.70;;;;;;;3.51;74.24;99565.06;1732671;82;21011;-67
2022/02/08 01:39:55;;;;;;;5.65;3.60;;;;;;;3.50;74.13;99564.80;1730061;82;21534;-67
2022/02/08 01:42:28;;;;;;;5.08;3.20;;;;;;;3.51;74.01;99563.75;1729427;82;21226;-67
2022/02/08 01:45:03;;;;;;;5.80;2.75;;;;;;;3.51;73.87;99567.70;1732044;82;21573;-67
2022/02/08 01:50:01;;;;;;;3.58;2.30;;;;;;;3.51;73.44;99580.39;1679548;82;21458;-67
2022/02/08 01:52:27;;;;;;;5.17;2.87;;;;;;;3.51;73.29;99588.30;1733702;82;21098;-67
2022/02/08 01:54:55;;;;;;;3.92;2.27;;;;;;;3.51;73.15;99580.39;1733929;82;21127;-67
2022/02/08 01:57:21;;;;;;;4.80;2.65;;;;;;;3.50;72.96;99590.67;1733691;82;21526;-66
2022/02/08 01:59:49;;;;;;;5.15;2.62;;;;;;;3.46;72.92;99581.63;1733922;82;21531;-66
2022/02/08 02:02:15;;;;;;;5.47;2.80;;;;;;;3.46;72.85;99588.22;1733623;82;21964;-67
2022/02/08 02:04:43;;;;;;;4.40;2.87;;;;;;;3.43;72.77;99590.53;1760254;81;21047;-67
2022/02/08 02:07:09;;;;;;;6.28;2.70;;;;;;;3.44;72.69;99581.56;1734196;81;21119;-66
2022/02/08 02:09:38;;;;;;;7.47;3.25;;;;;;;3.44;72.56;99586.84;1763985;81;21057;-66
2022/02/08 02:12:08;;;;;;;7.20;3.37;;;;;;;3.44;72.35;99594.77;1763929;81;21463;-67
2022/02/08 02:14:37;;;;;;;5.08;2.90;;;;;;;3.44;72.18;99597.41;1764232;81;21058;-67
2022/02/08 02:17:04;;;;;;;6.47;2.95;;;;;;;3.43;72.10;99611.13;1764092;81;21038;-66
2022/02/08 02:19:31;;;;;;;5.55;2.50;;;;;;;3.45;71.99;99615.63;1764213;81;21884;-67
2022/02/08 02:22:00;;;;;;;3.98;2.08;;;;;;;3.44;71.87;99616.68;1764178;81;20932;-67
2022/02/08 02:24:27;;;;;;;4.75;2.22;;;;;;;3.46;71.74;99619.90;1764338;81;20983;-67
2022/02/08 02:29:41;;;;;;;4.00;2.00;;;;;;;3.50;71.52;99622.35;1801221;78;20968;-66
2022/02/08 02:32:09;;;;;;;4.05;2.33;;;;;;;3.50;71.40;99622.35;1801371;79;21764;-67
2022/02/08 02:34:36;;;;;;;3.30;2.10;;;;;;;3.49;71.25;99622.60;1801126;79;21495;-67
2022/02/08 02:37:05;;;;;;;4.00;1.95;;;;;;;3.49;71.04;99625.23;1801085;79;21075;-66
2022/02/08 02:39:33;;;;;;;4.15;2.00;;;;;;;3.49;70.93;99630.52;1800966;79;20961;-66
2022/02/08 02:42:03;;;;;;;3.52;1.70;;;;;;;3.50;70.85;99626.31;1801091;79;21047;-67
2022/02/08 02:44:29;;;;;;;3.08;1.72;;;;;;;3.52;70.64;99631.34;1802768;79;21099;-66
2022/02/08 02:46:56;;;;;;;3.87;2.00;;;;;;;3.52;70.46;99648.02;1801344;79;20993;-67
2022/02/08 02:49:30;;;;;;;3.30;2.02;;;;;;;3.51;70.27;99652.98;1801022;79;21507;-66
2022/02/08 02:51:58;;;;;;;4.10;1.70;;;;;;;3.50;70.17;99649.27;1800921;79;21507;-66
2022/02/08 02:54:25;;;;;;;3.75;1.90;;;;;;;3.52;70.03;99655.94;1799464;79;21556;-67
2022/02/08 02:56:58;;;;;;;4.55;1.87;;;;;;;3.52;69.92;99663.03;1750699;81;21116;-66
2022/02/08 02:59:23;;;;;;;4.45;2.10;;;;;;;3.52;69.84;99660.39;1758599;81;21003;-67
2022/02/08 03:04:30;;;;;;;4.45;2.10;;;;;;;3.49;69.64;99663.52;1749939;82;21013;-66
2022/02/08 03:18:11;;;;;;;4.45;1.98;;;;;;;3.49;69.11;99683.32;1774387;80;20968;-67
2022/02/08 03:20:22;;;;;;;3.60;1.67;;;;;;;3.47;69.03;99696.73;1746682;82;21059;-67
2022/02/08 03:22:49;;;;;;;4.58;1.72;;;;;;;3.47;69.01;99692.77;1749902;82;21587;-66
2022/02/08 03:25:15;;;;;;;4.85;2.00;;;;;;;3.46;68.89;99705.70;1750383;82;20948;-67
2022/02/08 03:27:42;;;;;;;4.78;2.92;;;;;;;3.47;68.87;99715.22;1749924;82;21562;-67
2022/02/08 03:30:11;;;;;;;3.33;1.85;;;;;;;3.46;68.82;99717.58;1749989;82;20972;-67
2022/02/08 03:32:38;;;;;;;3.58;2.00;;;;;;;3.46;68.69;99718.90;1749952;82;21077;-66
2022/02/08 03:35:06;;;;;;;6.28;2.25;;;;;;;3.44;68.63;99728.88;1750373;81;22169;-67
2022/02/08 03:37:34;;;;;;;4.53;2.25;;;;;;;3.45;68.61;99731.80;1749634;82;21111;-67
2022/02/08 03:40:08;;;;;;;4.30;2.17;;;;;;;3.44;68.55;99722.80;1754199;81;21584;-67
2022/02/08 03:42:40;;;;;;;3.83;2.17;;;;;;;3.47;68.49;99728.94;1758735;81;21117;-67
2022/02/08 03:45:11;;;;;;;4.80;2.30;;;;;;;3.50;68.46;99744.31;1759747;81;20951;-67
2022/02/08 03:47:39;;;;;;;3.25;1.90;;;;;;;3.50;68.40;99742.48;1759625;81;21816;-67
2022/02/08 03:50:07;;;;;;;4.17;2.20;;;;;;;3.51;68.44;99745.92;1759532;81;21538;-67
2022/02/08 03:52:34;;;;;;;5.10;2.50;;;;;;;3.51;68.32;99746.72;1759616;81;21007;-67
2022/02/08 03:55:01;;;;;;;4.10;2.08;;;;;;;3.51;68.29;99748.03;1731946;81;21405;-66
2022/02/08 03:57:31;;;;;;;4.33;2.42;;;;;;;3.53;68.26;99748.63;1759489;81;21058;-67
2022/02/08 03:59:59;;;;;;;6.42;2.72;;;;;;;3.52;68.21;99753.62;1759554;81;20996;-66
2022/02/08 04:05:01;;;;;;;4.70;2.80;;;;;;;3.51;68.15;99752.00;1759644;81;20956;-66
2022/02/08 04:08:23;;;;;;;5.75;3.33;;;;;;;3.52;68.13;99759.39;1759002;81;22199;-66
2022/02/08 04:10:05;;;;;;;6.17;3.33;;;;;;;3.53;68.15;99762.34;1737232;81;21407;-66
2022/02/08 04:12:55;;;;;;;6.22;3.00;;;;;;;3.53;68.11;99770.27;1759939;81;21154;-67
2022/02/08 04:15:27;;;;;;;5.25;2.98;;;;;;;3.50;68.11;99778.64;1757643;81;20968;-66
2022/02/08 04:17:58;;;;;;;5.10;2.80;;;;;;;3.49;68.17;99784.97;1755325;81;21483;-67
2022/02/08 04:41:31;;;;;;;5.00;2.55;;;;;;;3.49;68.10;99835.13;1759709;81;20984;-67
2022/02/08 04:43:59;;;;;;;4.03;2.12;;;;;;;3.49;68.12;99847.01;1756668;81;21561;-66
2022/02/08 04:48:59;;;;;;;;;;;;;;;3.49;68.10;99853.61;1732154;83;21537;-66
2022/02/08 04:51:20;;;;;;;6.20;2.22;;;;;;;3.48;68.15;99863.34;1725377;83;21142;-66
2022/02/08 04:53:54;;;;;;;3.55;1.92;;;;;;;3.48;68.21;99869.94;1734422;81;21356;-66
2022/02/08 04:58:58;;;;;;;4.92;2.20;;;;;;;3.49;68.30;99876.85;1694886;81;21032;-66
2022/02/08 05:01:35;;;;;;;3.90;2.33;;;;;;;3.51;68.32;99877.41;1773409;79;20940;-66
2022/02/08 05:29:39;;;;;;;6.37;3.42;;;;;;;3.56;68.31;99915.55;1787127;80;20972;-67
2022/02/08 05:42:46;;;;;;;5.85;3.20;;;;;;;3.58;68.07;99942.52;1767202;80;21078;-67
2022/02/08 05:44:38;;;;;;;5.53;3.02;;;;;;;3.58;68.11;99942.52;1765313;80;21545;-68
2022/02/08 05:46:59;;;;;;;5.08;2.72;;;;;;;3.59;68.07;99938.34;1772351;80;21388;-66
2022/02/08 05:49:39;;;;;;;6.53;3.30;;;;;;;3.58;68.13;99949.13;1769356;81;20953;-65
2022/02/08 05:54:20;;;;;;;5.35;3.10;;;;;;;3.59;68.13;99958.67;1769198;81;21043;-66
2022/02/08 05:56:52;;;;;;;5.08;2.45;;;;;;;3.60;68.08;99960.27;1769550;81;21148;-66
2022/02/08 05:59:15;;;;;;;5.70;2.77;;;;;;;3.60;68.06;99964.23;1785328;80;20987;-67
2022/02/08 06:01:42;;;;;;;5.47;2.60;;;;;;;3.62;68.05;99974.04;1787422;80;20976;-66
2022/02/08 06:04:11;;;;;;;6.12;2.72;;;;;;;3.61;68.03;99979.04;1749984;80;21051;-66
2022/02/08 06:06:38;;;;;;;4.67;2.55;;;;;;;3.60;68.04;99983.52;1787716;80;21094;-66
2022/02/08 06:09:05;;;;;;;4.90;2.70;;;;;;;3.61;67.93;99980.36;1777842;80;22159;-66
2022/02/08 06:11:35;;;;;;;6.05;2.83;;;;;;;3.60;67.91;99981.41;1756343;81;20999;-66
2022/02/08 06:14:00;;;;;;;4.80;2.37;;;;;;;3.60;67.88;99986.69;1756045;81;21573;-66
2022/02/08 06:16:29;;;;;;;5.12;2.58;;;;;;;3.62;67.86;100000.45;1758061;80;21027;-66
2022/02/08 06:18:55;;;;;;;6.15;3.05;;;;;;;3.63;67.85;99993.64;1756202;81;21007;-65
2022/02/08 06:21:22;;;;;;;4.45;2.62;;;;;;;3.65;67.83;99990.75;1756574;81;21116;-66
2022/02/08 06:23:48;;;;;;;5.42;2.70;;;;;;;3.65;67.79;99989.44;1755818;81;21165;-67
2022/02/08 06:26:16;;;;;;;5.03;2.85;;;;;;;3.66;67.78;99996.35;1756369;81;21082;-67
2022/02/08 06:28:43;;;;;;;4.72;2.60;;;;;;;3.68;67.76;99994.27;1756040;81;21450;-66
2022/02/08 06:31:10;;;;;;;5.85;3.02;;;;;;;3.67;67.70;99993.47;1770614;80;20971;-66
2022/02/08 06:33:39;;;;;;;5.47;2.75;;;;;;;3.69;67.68;99990.62;1787223;80;21093;-66
2022/02/08 06:36:06;;;;;;;5.37;2.87;;;;;;;3.72;67.58;99998.09;1787888;80;20956;-67
2022/02/08 06:38:35;;;;;;;4.85;2.50;;;;;;;3.71;67.49;100001.23;1787243;80;21580;-67
2022/02/08 06:41:03;;;;;;;4.53;2.70;;;;;;;3.75;67.34;100005.54;1787824;80;20956;-67
2022/02/08 06:43:31;;;;;;;4.92;2.85;;;;;;;3.78;67.28;100013.02;1787153;80;21043;-68
2022/02/08 06:46:00;;;;;;;4.78;2.75;;;;;;;3.81;67.13;100013.89;1787372;80;21584;-67
2022/02/08 06:48:26;;;;;;;4.85;2.55;;;;;;;3.85;67.02;100023.00;1787221;80;21034;-67
2022/02/08 06:50:53;;;;;;;6.22;3.15;;;;;;;3.88;66.96;100025.68;1787331;80;21494;-67
2022/02/08 06:53:21;;;;;;;4.90;2.90;;;;;;;3.89;66.81;100028.11;1787059;80;21550;-67
2022/02/08 06:55:48;;;;;;;5.05;2.70;;;;;;;3.92;66.73;100028.19;1787362;80;21466;-67
2022/02/08 06:58:16;;;;;;;4.70;2.45;;;;;;;3.92;66.55;100031.62;1761648;80;22191;-65
2022/02/08 07:00:45;;;;;;;4.17;2.37;;;;;;;3.93;66.52;100034.55;1756209;81;21075;-66
2022/02/08 07:03:16;;;;;;;6.45;2.70;;;;;;;3.97;66.46;100032.26;1756057;81;21473;-66
2022/02/08 07:05:42;;;;;;;4.85;2.60;;;;;;;3.99;66.29;100028.36;1755911;81;21043;-66
2022/02/08 07:08:10;;;;;;;4.70;2.33;;;;;;;4.01;66.21;100032.09;1756376;81;20999;-66
2022/02/08 07:10:37;;;;;;;6.10;2.90;;;;;;;4.05;66.06;100045.66;1756096;81;21514;-67
2022/02/08 07:13:06;;;;;;;5.85;2.52;;;;;;;4.07;65.95;100039.64;1762762;80;21054;-67
2022/02/08 07:15:32;;;;;;;6.53;2.65;;;;;;;4.08;65.87;100040.75;1785028;80;21032;-68
2022/02/08 07:18:00;;;;;;;5.40;2.47;;;;;;;4.09;65.66;100046.83;1766201;80;21082;-67
2022/02/08 07:20:28;;;;;;;6.37;2.75;;;;;;;4.11;65.55;100052.68;1756425;81;21617;-68
2022/02/08 07:22:55;;;;;;;5.30;2.60;;;;;;;4.13;65.35;100061.20;1756316;81;22039;-67
2022/02/08 07:25:22;;;;;;;5.33;2.95;;;;;;;4.15;65.35;100067.08;1756160;81;20999;-67
2022/02/08 07:27:50;;;;;;;7.00;3.15;;;;;;;4.20;65.28;100071.16;1755940;81;21031;-67
2022/02/08 07:30:16;;;;;;;6.42;2.80;;;;;;;4.26;65.11;100080.83;1756003;81;20967;-67
2022/02/08 07:32:46;;;;;;;6.35;2.60;;;;;;;4.28;64.92;100088.02;1756494;81;21050;-68
2022/02/08 07:35:26;;;;;;;4.85;2.42;;;;;;;4.28;64.57;100093.31;1756230;81;22011;-66
2022/02/08 07:38:04;;;;;;;5.40;2.42;;;;;;;4.27;64.33;100096.97;1756032;81;21035;-67
2022/02/08 07:43:02;;;;;;;4.62;2.27;;;;;;;4.28;64.23;100103.05;1756194;81;21074;-67
2022/02/08 07:45:34;;;;;;;6.20;2.98;;;;;;;4.29;64.04;100110.77;1755971;81;20964;-67
2022/02/08 07:48:00;;;;;;;5.20;2.27;;;;;;;4.29;63.85;100123.19;1756368;81;21501;-67
2022/02/08 07:50:27;;;;;;;4.83;2.50;;;;;;;4.26;63.58;100113.87;1756041;81;20979;-67
2022/02/08 07:52:53;;;;;;;4.47;2.33;;;;;;;4.25;63.51;100116.23;1730726;81;20999;-68
2022/02/08 07:55:21;;;;;;;5.15;2.60;;;;;;;4.27;63.47;100123.92;1770679;80;21003;-67
2022/02/08 07:57:49;;;;;;;4.78;2.15;;;;;;;4.29;63.35;100121.87;1787516;80;20976;-67
2022/02/08 08:00:19;;;;;;;4.87;2.33;;;;;;;4.31;63.34;100130.36;1787173;80;21826;-66
2022/02/08 08:02:45;;;;;;;5.22;2.33;;;;;;;4.32;62.97;100137.28;1787421;80;21099;-67
2022/02/08 08:05:12;;;;;;;4.72;2.15;;;;;;;4.32;62.73;100141.25;1787351;80;21019;-67
2022/02/08 08:07:43;;;;;;;4.37;2.47;;;;;;;4.33;62.70;100148.94;1787208;80;21055;-66
2022/02/08 08:10:17;;;;;;;4.72;2.37;;;;;;;4.35;62.40;100146.89;1787265;80;21059;-67
2022/02/08 08:12:46;;;;;;;4.30;2.10;;;;;;;4.36;62.14;100152.98;1786691;80;21023;-65
2022/02/08 08:15:23;;;;;;;4.37;2.02;;;;;;;4.38;61.96;100162.83;1786549;80;21125;-65
2022/02/08 08:17:55;;;;;;;6.50;2.27;;;;;;;4.41;61.75;100159.21;1783865;80;21050;-66
2022/02/08 08:20:10;;;;;;;3.98;2.02;;;;;;;4.40;61.23;100170.80;1783432;80;20995;-66
2022/02/08 08:22:37;;;;;;;4.00;1.92;;;;;;;4.40;60.88;100177.41;1787396;80;21644;-67
2022/02/08 08:25:05;;;;;;;4.70;2.17;;;;;;;4.42;60.68;100181.97;1761137;80;21153;-66
2022/02/08 08:27:32;;;;;;;5.00;2.30;;;;;;;4.42;60.52;100175.87;1787110;80;21050;-67
2022/02/08 08:29:59;;;;;;;3.98;1.85;;;;;;;4.43;60.16;100185.41;1787242;80;20960;-67
2022/02/08 08:32:26;;;;;;;5.25;2.05;;;;;;;4.43;59.96;100184.89;1787113;80;21038;-67
2022/02/08 08:34:54;;;;;;;4.35;1.80;;;;;;;4.43;59.63;100204.73;1787724;80;21027;-67
2022/02/08 08:37:24;;;;;;;5.50;2.42;;;;;;;4.44;59.57;100190.49;1787229;80;21140;-68
2022/02/08 08:39:52;;;;;;;5.58;1.98;;;;;;;4.49;59.38;100205.67;1787372;80;21055;-67
2022/02/08 08:42:39;;;;;;;3.95;2.00;;;;;;;4.53;59.32;100206.03;1787275;80;21094;-67
2022/02/08 08:45:17;;;;;;;4.72;2.20;;;;;;;4.57;59.27;100205.34;1785444;80;20968;-67
2022/02/08 08:50:17;;;;;;;5.90;2.35;;;;;;;4.66;58.75;100209.28;1787583;80;21155;-66
2022/02/08 08:52:44;;;;;;;4.15;2.25;;;;;;;4.69;58.11;100221.26;1786320;80;21537;-67
2022/02/08 08:55:10;;;;;;;5.35;2.40;;;;;;;4.70;57.98;100208.31;1787627;80;21519;-67
2022/02/08 08:57:37;;;;;;;4.40;2.35;;;;;;;4.70;57.89;100214.44;1787036;80;21594;-66
2022/02/08 09:00:09;;;;;;;7.12;3.00;;;;;;;4.74;57.80;100217.43;1787386;80;21510;-67
2022/02/08 09:02:35;;;;;;;;;;;;;;;4.77;57.67;100220.95;1782067;80;21123;-67
2022/02/08 09:05:06;;;;;;;6.22;2.80;;;;;;;4.84;57.45;100215.55;1755168;81;20538;-67
2022/02/08 09:07:33;;;;;;;4.97;2.60;;;;;;;4.88;57.21;100221.48;1769649;81;21047;-67
2022/02/08 09:10:02;;;;;;;5.87;2.60;;;;;;;4.93;56.94;100222.91;1769567;81;20984;-66
2022/02/08 09:18:15;;;;;;;6.03;2.50;;;;;;;5.03;55.14;100234.78;1732118;81;21510;-68
2022/02/08 09:28:09;;;;;;;6.25;3.05;;;;;;;5.23;54.31;100231.31;1769255;79;21486;-67
2022/02/08 09:30:40;;;;;;;5.53;2.33;;;;;;;5.25;54.35;100231.88;1767844;81;21499;-66
2022/02/08 09:33:00;;;;;;;4.92;2.10;;;;;;;5.25;53.39;100233.20;1767941;81;20980;-66
2022/02/08 09:35:27;;;;;;;6.35;2.20;;;;;;;5.21;52.83;100230.73;1769209;79;20976;-65
2022/02/08 09:37:53;;;;;;;5.33;2.47;;;;;;;5.18;53.04;100235.95;1769131;81;20999;-66
2022/02/08 09:40:22;;;;;;;4.53;2.30;;;;;;;5.20;53.36;100245.02;1769489;81;21965;-66
2022/02/08 09:42:51;;;;;;;4.65;2.30;;;;;;;5.22;53.14;100248.22;1769329;81;21008;-67
2022/02/08 09:45:20;;;;;;;5.00;2.27;;;;;;;5.26;53.06;100234.80;1769551;80;20956;-68
2022/02/08 09:48:02;;;;;;;4.03;1.60;;;;;;;5.28;52.10;100232.74;1769191;81;21087;-66
2022/02/08 09:50:23;;;;;;;4.10;1.55;;;;;;;5.26;51.28;100258.63;1764835;81;20925;-66
2022/02/08 09:52:52;;;;;;;6.78;1.80;;;;;;;5.22;50.36;100242.12;1772597;79;21143;-67
2022/02/08 09:55:19;;;;;;;3.50;1.30;;;;;;;5.13;50.34;100250.91;1749973;82;20952;-67
2022/02/08 09:57:46;;;;;;;5.83;1.17;;;;;;;5.06;49.53;100246.23;1749740;82;21102;-67
2022/02/08 10:00:14;;;;;;;2.92;1.12;;;;;;;4.99;49.33;100234.44;1750202;82;20960;-67
2022/02/08 10:02:44;;;;;;;3.83;1.07;;;;;;;4.99;48.79;100241.05;1749850;82;21139;-67
2022/02/08 10:05:11;;;;;;;2.62;0.90;;;;;;;4.98;48.63;100275.70;1749954;82;21168;-67
2022/02/08 10:07:38;;;;;;;2.72;1.00;;;;;;;4.95;48.50;100246.52;1749780;82;21322;-67
2022/02/08 10:10:09;;;;;;;2.47;0.98;;;;;;;4.91;48.27;100250.66;1749913;81;21118;-67
2022/02/08 10:21:41;;;;;;;3.80;1.40;;;;;;;5.01;48.12;100240.84;1750205;82;20961;-66
2022/02/08 10:23:55;;;;;;;2.77;1.02;;;;;;;5.02;48.45;100242.44;1746475;82;21048;-66
2022/02/08 10:26:42;;;;;;;2.87;1.10;;;;;;;5.00;48.24;100243.17;1749535;82;21023;-66
2022/02/08 10:29:00;;;;;;;2.98;1.10;;;;;;;4.98;48.57;100240.77;1742754;82;20976;-66
2022/02/08 10:31:45;;;;;;;3.95;1.50;;;;;;;4.98;48.38;100256.66;1749874;81;21124;-67
2022/02/08 10:39:28;;;;;;;2.75;1.27;;;;;;;4.90;48.55;100244.56;1749932;82;21182;-66
2022/02/08 10:41:56;;;;;;;3.00;1.30;;;;;;;4.87;48.75;100234.42;1740072;81;20978;-66
2022/02/08 10:44:24;;;;;;;3.00;1.45;;;;;;;4.86;48.92;100239.93;1729423;83;21524;-66
2022/02/08 10:46:59;;;;;;;3.25;1.42;;;;;;;4.88;49.34;100249.27;1729478;83;20989;-66
2022/02/08 10:49:31;;;;;;;3.22;1.50;;;;;;;4.93;49.65;100240.11;1729522;83;21490;-66
2022/02/08 10:52:01;;;;;;;3.02;1.32;;;;;;;5.00;49.80;100242.69;1754203;81;21110;-67
2022/02/08 10:54:35;;;;;;;4.08;1.80;;;;;;;5.03;49.36;100235.58;1759552;81;21007;-67
2022/02/08 10:57:02;;;;;;;4.22;1.40;;;;;;;5.03;49.02;100237.42;1758125;81;21089;-66
2022/02/08 10:59:29;;;;;;;3.95;1.47;;;;;;;5.00;48.47;100244.50;1748645;81;21082;-66
2022/02/08 11:02:09;;;;;;;3.25;1.30;;;;;;;4.90;48.71;100235.79;1728896;83;21514;-66
2022/02/08 11:04:58;;;;;;;3.00;1.10;;;;;;;4.83;48.91;100254.41;1727230;83;20975;-66
2022/02/08 11:07:24;;;;;;;3.80;0.98;;;;;;;4.78;48.58;100262.23;1726461;83;21051;-66
2022/02/08 11:10:15;;;;;;;4.22;1.20;;;;;;;4.76;48.73;100244.97;1725708;83;21990;-66
2022/02/08 11:12:50;;;;;;;2.83;1.20;;;;;;;4.72;48.52;100255.72;1726713;83;21169;-67
2022/02/08 11:15:24;;;;;;;2.95;1.17;;;;;;;4.72;48.22;100258.36;1725500;83;21082;-66
2022/02/08 11:20:20;;;;;;;2.22;1.10;;;;;;;4.69;48.82;100253.00;1729459;83;21011;-66
2022/02/08 11:22:59;;;;;;;2.98;1.27;;;;;;;4.68;48.56;100250.87;1676799;83;21109;-66
2022/02/08 11:25:35;;;;;;;3.25;1.12;;;;;;;4.66;48.35;100252.12;1729027;83;21015;-68
2022/02/08 11:28:12;;;;;;;2.30;1.02;;;;;;;4.62;48.27;100265.52;1728854;83;20981;-66
2022/02/08 11:30:54;;;;;;;1.67;0.88;;;;;;;4.58;48.45;100261.20;1729469;83;21043;-66
2022/02/08 11:45:20;;;;;;;3.00;1.12;;;;;;;4.64;47.68;100247.08;1655195;86;21629;-67
2022/02/08 11:47:37;;;;;;;3.33;1.70;;;;;;;4.72;47.70;100257.84;1716522;83;21093;-66
2022/02/08 11:52:50;;;;;;;2.65;1.00;;;;;;;4.83;47.22;100257.58;1759799;81;21538;-67
2022/02/08 12:00:35;;;;;;;3.05;1.22;;;;;;;4.83;47.01;100257.06;1760175;81;21568;-66
2022/02/08 12:05:42;;;;;;;3.20;1.50;;;;;;;4.87;47.09;100268.00;1730392;79;21035;-67
2022/02/08 12:08:04;;;;;;;4.12;1.50;;;;;;;4.86;47.37;100270.36;1789450;79;21051;-67
2022/02/08 12:10:41;;;;;;;4.87;2.08;;;;;;;4.88;47.58;100273.60;1785243;80;20955;-67
2022/02/08 12:13:43;;;;;;;4.75;1.95;;;;;;;4.89;47.57;100272.03;1784180;79;21028;-67
2022/02/08 12:32:37;;;;;;;5.87;2.37;;;;;;;4.81;48.38;100292.74;1756038;81;21102;-66
2022/02/08 12:35:16;;;;;;;6.50;2.20;;;;;;;4.81;48.45;100296.71;1756075;81;21557;-66
2022/02/08 12:59:08;;;;;;;5.00;1.85;;;;;;;4.67;47.71;100307.48;1756239;81;21058;-67
2022/02/08 13:02:01;;;;;;;4.40;2.08;;;;;;;4.69;47.75;100311.20;1727630;81;21058;-67
2022/02/08 14:01:39;;;;;;;4.75;1.65;;;;;;;4.54;47.67;100327.48;1755980;81;21078;-67
2022/02/08 14:18:42;;;;;;;5.72;2.00;;;;;;;4.42;47.54;100331.89;1787565;80;21450;-66
2022/02/08 14:21:13;;;;;;;7.20;2.47;;;;;;;4.42;47.84;100337.19;1783406;80;21027;-67
2022/02/08 14:31:50;;;;;;;5.30;2.33;;;;;;;4.40;48.07;100347.97;1760973;80;21011;-67
2022/02/08 15:09:17;;;;;;;3.77;1.40;;;;;;;3.82;49.05;100356.80;1756388;81;21518;-66
2022/02/08 15:11:59;;;;;;;4.67;2.20;;;;;;;3.80;48.82;100357.03;1755522;81;20956;-66
2022/02/08 15:14:15;;;;;;;7.25;1.90;;;;;;;3.82;48.87;100364.73;1751943;81;21068;-67
2022/02/08 15:16:44;;;;;;;5.28;1.95;;;;;;;3.83;49.01;100367.17;1756131;81;21565;-66
2022/02/08 15:19:12;;;;;;;3.62;1.77;;;;;;;3.85;48.95;100362.97;1773905;80;21043;-66
2022/02/08 15:21:39;;;;;;;3.75;1.85;;;;;;;3.84;48.90;100358.20;1786593;80;21180;-66
2022/02/08 15:24:09;;;;;;;4.47;2.10;;;;;;;3.85;48.93;100370.41;1787221;80;20988;-67
2022/02/08 15:26:35;;;;;;;5.45;2.52;;;;;;;3.85;48.92;100377.02;1787533;80;21008;-67
2022/02/08 15:29:03;;;;;;;5.67;2.02;;;;;;;3.86;49.07;100366.73;1786833;80;20995;-67
2022/02/08 15:31:29;;;;;;;6.60;2.55;;;;;;;3.86;49.30;100369.37;1761472;80;21106;-67
2022/02/08 15:33:58;;;;;;;4.97;2.40;;;;;;;3.85;49.57;100371.73;1787194;80;21151;-67
2022/02/08 15:36:25;;;;;;;4.50;2.20;;;;;;;3.84;49.60;100373.25;1787327;80;21031;-66
2022/02/08 15:38:54;;;;;;;6.05;2.30;;;;;;;3.83;49.81;100371.13;1787075;80;21474;-66
2022/02/08 15:41:20;;;;;;;4.60;2.40;;;;;;;3.80;49.83;100368.92;1787464;80;21019;-66
2022/02/08 15:43:47;;;;;;;6.78;2.10;;;;;;;3.81;49.84;100378.45;1787260;80;21062;-66
2022/02/08 15:46:21;;;;;;;4.30;2.08;;;;;;;3.79;49.52;100382.36;1736468;80;21420;-66
2022/02/08 15:48:49;;;;;;;4.72;1.87;;;;;;;3.79;49.42;100387.13;1782006;80;21491;-66
2022/02/08 15:51:24;;;;;;;5.92;1.98;;;;;;;3.80;49.33;100378.69;1756112;81;20964;-66
2022/02/08 15:56:32;;;;;;;5.40;2.08;;;;;;;3.80;49.33;100390.57;1756257;81;21102;-66
2022/02/08 16:07:07;;;;;;;5.60;2.20;;;;;;;3.76;49.51;100378.31;1787224;80;21043;-66
2022/02/08 16:09:50;;;;;;;5.42;2.30;;;;;;;3.77;49.61;100377.27;1787022;80;21703;-66
2022/02/08 16:20:22;;;;;;;7.62;2.90;;;;;;;3.79;50.04;100380.52;1670174;86;21049;-66
2022/02/08 16:27:47;;;;;;;6.17;2.60;;;;;;;3.77;50.73;100379.91;1747203;82;21040;-66
2022/02/08 16:54:47;;;;;;;9.68;4.25;;;;;;;3.58;51.83;100384.84;1801020;79;20964;-65
2022/02/08 16:57:08;;;;;;;9.78;4.58;;;;;;;3.52;51.94;100383.37;1796614;79;20968;-65
2022/02/08 16:59:30;;;;;;;9.08;4.10;;;;;;;3.52;52.01;100384.70;1799214;79;20949;-66
2022/02/08 17:01:58;;;;;;;7.75;3.80;;;;;;;3.54;51.95;100379.19;1800952;79;20937;-66
2022/02/08 17:04:23;;;;;;;7.85;3.83;;;;;;;3.53;51.88;100374.94;1800558;79;21146;-65
2022/02/08 17:06:51;;;;;;;8.00;4.05;;;;;;;3.55;51.87;100377.34;1801115;79;21507;-66
2022/02/08 17:09:42;;;;;;;7.90;3.95;;;;;;;3.56;51.94;100375.03;1800861;79;21048;-66
2022/02/08 17:12:04;;;;;;;7.90;4.33;;;;;;;3.60;51.93;100382.81;1796898;79;21522;-66
2022/02/08 17:14:48;;;;;;;8.00;3.98;;;;;;;3.61;51.90;100376.49;1799584;79;20993;-66
2022/02/08 17:47:20;;;;;;;5.90;3.22;;;;;;;3.29;53.05;100392.34;1778650;78;21453;-66
2022/02/08 17:49:28;;;;;;;8.55;3.85;;;;;;;3.28;53.15;100384.94;1770729;79;20993;-66
2022/02/08 17:51:55;;;;;;;11.70;5.65;;;;;;;3.30;53.22;100392.66;1792364;79;21036;-67
2022/02/08 17:54:22;;;;;;;12.45;6.75;;;;;;;3.33;53.22;100394.08;1782649;79;21208;-67
2022/02/08 17:56:48;;;;;;;11.15;6.70;;;;;;;3.33;53.19;100394.88;1796211;78;21500;-67
2022/02/08 17:59:15;;;;;;;13.13;7.80;;;;;;;3.33;53.25;100390.12;1779071;79;21063;-65